createdAt,value
2018-07-06T00:02:05.584Z,5.83
2018-07-06T00:04:45.440Z,2.90
2018-07-06T00:07:24.977Z,3.30
2018-07-06T00:10:04.617Z,3.60
2018-07-06T00:12:44.295Z,4.37
2018-07-06T00:15:23.846Z,3.57
2018-07-06T00:18:03.317Z,6.07
2018-07-06T00:20:42.968Z,4.47
2018-07-06T00:23:16.679Z,4.10
2018-07-06T00:25:56.451Z,2.53
2018-07-06T00:28:36.179Z,4.70
2018-07-06T00:31:15.894Z,3.93
2018-07-06T00:33:49.477Z,2.60
2018-07-06T00:36:29.182Z,3.57
2018-07-06T00:39:08.626Z,4.47
2018-07-06T00:41:48.272Z,4.20
2018-07-06T00:44:27.940Z,4.20
2018-07-06T00:47:07.647Z,3.30
2018-07-06T00:49:47.386Z,2.83
2018-07-06T00:52:27.056Z,3.83
2018-07-06T00:55:06.627Z,3.63
2018-07-06T00:57:50.483Z,4.97
2018-07-06T01:00:24.340Z,2.67
2018-07-06T01:03:04.025Z,3.00
2018-07-06T01:05:43.575Z,3.47
2018-07-06T01:08:17.288Z,5.17
2018-07-06T01:10:56.947Z,4.47
2018-07-06T01:13:36.604Z,6.57
2018-07-06T01:16:16.404Z,2.80
2018-07-06T01:18:50.222Z,3.27
2018-07-06T01:21:29.824Z,4.93
2018-07-06T01:24:09.567Z,6.10
2018-07-06T01:26:49.269Z,5.00
2018-07-06T01:29:28.819Z,5.10
2018-07-06T01:32:08.557Z,5.00
2018-07-06T01:34:48.238Z,2.97
2018-07-06T01:37:27.818Z,5.00
2018-07-06T01:40:07.589Z,6.77
2018-07-06T01:42:47.262Z,5.90
2018-07-06T01:45:26.993Z,4.40
2018-07-06T01:48:06.591Z,5.40
2018-07-06T01:50:40.277Z,3.20
2018-07-06T01:53:19.943Z,4.27
2018-07-06T01:55:59.613Z,4.13
2018-07-06T01:58:39.219Z,2.80
2018-07-06T02:01:12.882Z,3.63
2018-07-06T02:03:52.837Z,4.80
2018-07-06T02:06:32.303Z,3.47
2018-07-06T02:09:06.021Z,2.97
2018-07-06T02:11:45.683Z,3.70
2018-07-06T02:14:25.438Z,3.57
2018-07-06T02:17:05.161Z,3.87
2018-07-06T02:19:44.786Z,4.93
2018-07-06T02:22:18.978Z,4.23
2018-07-06T02:24:58.605Z,5.07
2018-07-06T02:27:38.274Z,4.70
2018-07-06T02:30:17.904Z,3.43
2018-07-06T02:32:57.585Z,3.70
2018-07-06T02:35:37.660Z,3.80
2018-07-06T02:38:17.434Z,3.50
2018-07-06T02:40:57.248Z,3.53
2018-07-06T02:43:37.010Z,4.47
2018-07-06T02:46:16.672Z,5.17
2018-07-06T02:48:56.395Z,3.50
2018-07-06T02:51:36.018Z,3.90
2018-07-06T02:54:15.503Z,3.50
2018-07-06T02:56:55.090Z,5.40
2018-07-06T02:59:34.687Z,7.43
2018-07-06T03:02:14.341Z,5.40
2018-07-06T03:04:53.908Z,5.07
2018-07-06T03:07:27.527Z,4.23
2018-07-06T03:10:07.081Z,5.83
2018-07-06T03:12:46.819Z,5.87
2018-07-06T03:15:26.404Z,3.97
2018-07-06T03:18:06.203Z,4.90
2018-07-06T03:20:45.786Z,5.17
2018-07-06T03:23:25.595Z,9.90
2018-07-06T03:26:05.271Z,5.07
2018-07-06T03:28:45.311Z,5.13
2018-07-06T03:31:24.553Z,6.13
2018-07-06T03:34:04.362Z,4.37
2018-07-06T03:36:43.859Z,4.40
2018-07-06T03:39:23.490Z,3.97
2018-07-06T03:42:03.068Z,5.30
2018-07-06T03:44:42.815Z,5.40
2018-07-06T03:47:22.272Z,4.47
2018-07-06T03:50:01.929Z,5.50
2018-07-06T03:52:41.567Z,7.87
2018-07-06T03:55:21.612Z,6.10
2018-07-06T03:58:02.887Z,9.03
2018-07-06T04:00:42.583Z,9.67
2018-07-06T04:03:22.344Z,7.43
2018-07-06T04:06:02.240Z,6.23
2018-07-06T04:08:41.962Z,5.13
2018-07-06T04:11:21.806Z,4.73
2018-07-06T04:14:01.462Z,5.83
2018-07-06T04:16:41.116Z,7.73
2018-07-06T04:19:20.840Z,6.60
2018-07-06T04:22:00.501Z,7.33
2018-07-06T04:24:39.958Z,7.60
2018-07-06T04:27:19.676Z,8.67
2018-07-06T04:29:59.213Z,8.93
2018-07-06T04:32:38.815Z,8.37
2018-07-06T04:35:18.506Z,11.87
2018-07-06T04:37:58.179Z,10.60
2018-07-06T04:40:37.911Z,7.47
2018-07-06T04:43:17.559Z,6.73
2018-07-06T04:45:57.282Z,11.03
2018-07-06T04:48:36.983Z,9.17
2018-07-06T04:51:10.786Z,8.97
2018-07-06T04:53:50.314Z,7.93
2018-07-06T04:56:30.034Z,11.80
2018-07-06T04:59:09.852Z,10.43
2018-07-06T05:01:49.554Z,10.07
2018-07-06T05:04:29.095Z,8.27
2018-07-06T05:07:08.883Z,11.50
2018-07-06T05:09:48.638Z,10.20
2018-07-06T05:12:28.356Z,10.23
2018-07-06T05:15:08.043Z,8.13
2018-07-06T05:17:47.735Z,11.57
2018-07-06T05:20:21.481Z,12.83
2018-07-06T05:23:01.233Z,10.43
2018-07-06T05:25:40.977Z,8.73
2018-07-06T05:28:20.724Z,10.47
2018-07-06T05:31:00.395Z,7.97
2018-07-06T05:33:40.080Z,8.63
2018-07-06T05:36:19.764Z,9.43
2018-07-06T05:38:59.234Z,8.80
2018-07-06T05:41:38.580Z,10.37
2018-07-06T05:44:18.337Z,12.27
2018-07-06T05:46:58.028Z,13.37
2018-07-06T05:49:37.606Z,10.63
2018-07-06T05:52:11.174Z,10.23
2018-07-06T05:54:50.696Z,11.30
2018-07-06T05:57:30.289Z,16.00
2018-07-06T06:00:10.070Z,11.27
2018-07-06T06:02:49.568Z,9.47
2018-07-06T06:05:23.247Z,14.97
2018-07-06T06:07:50.528Z,8.87
2018-07-06T06:10:18.558Z,13.33
2018-07-06T06:12:46.819Z,13.67
2018-07-06T06:15:15.098Z,9.87
2018-07-06T06:17:43.382Z,11.93
2018-07-06T06:20:14.774Z,11.43
2018-07-06T06:22:42.785Z,17.23
2018-07-06T06:25:11.380Z,12.37
2018-07-06T06:27:39.721Z,12.40
2018-07-06T06:30:08.029Z,14.40
2018-07-06T06:32:36.651Z,13.90
2018-07-06T06:35:04.948Z,16.73
2018-07-06T06:37:33.298Z,15.03
2018-07-06T06:40:01.711Z,16.30
2018-07-06T06:42:30.039Z,16.23
2018-07-06T06:44:58.315Z,15.30
2018-07-06T06:47:26.693Z,14.93
2018-07-06T06:49:55.014Z,14.00
2018-07-06T06:52:23.047Z,14.10
2018-07-06T06:54:51.346Z,19.33
2018-07-06T06:57:19.684Z,23.73
2018-07-06T06:59:50.020Z,19.27
2018-07-06T07:02:18.352Z,19.37
2018-07-06T07:04:46.677Z,20.00
2018-07-06T07:07:15.139Z,19.47
2018-07-06T07:09:43.462Z,27.13
2018-07-06T07:12:11.748Z,29.33
2018-07-06T07:14:40.149Z,30.57
2018-07-06T07:17:08.520Z,32.50
2018-07-06T07:19:36.929Z,34.50
2018-07-06T07:22:05.188Z,32.20
2018-07-06T07:24:33.614Z,34.97
2018-07-06T07:27:01.978Z,33.97
2018-07-06T07:29:30.479Z,35.47
2018-07-06T07:31:58.927Z,36.50
2018-07-06T07:34:27.552Z,38.40
2018-07-06T07:36:55.543Z,33.67
2018-07-06T07:39:23.969Z,32.00
2018-07-06T07:41:52.602Z,33.47
2018-07-06T07:44:21.130Z,35.03
2018-07-06T07:46:49.448Z,35.10
2018-07-06T07:49:17.722Z,35.37
2018-07-06T07:51:56.765Z,31.60
2018-07-06T07:54:33.012Z,33.90
2018-07-06T07:57:02.296Z,34.97
2018-07-06T07:59:32.227Z,32.77
2018-07-06T08:02:01.361Z,28.63
2018-07-06T08:04:29.666Z,27.05
2018-07-06T08:06:58.249Z,25.48
2018-07-06T08:09:27.331Z,27.45
2018-07-06T08:11:57.136Z,26.02
2018-07-06T08:14:25.549Z,31.42
2018-07-06T08:16:53.896Z,28.75
2018-07-06T08:19:22.459Z,29.23
2018-07-06T08:21:51.066Z,33.63
2018-07-06T08:24:19.975Z,30.60
2018-07-06T08:26:48.529Z,33.70
2018-07-06T08:29:16.906Z,38.00
2018-07-06T08:31:45.466Z,38.42
2018-07-06T08:34:25.194Z,34.78
2018-07-06T08:37:37.368Z,38.10
2018-07-06T08:40:05.694Z,36.48
2018-07-06T08:42:36.022Z,33.42
2018-07-06T08:45:04.773Z,32.90
2018-07-06T08:47:33.105Z,32.13
2018-07-06T08:50:02.198Z,33.95
2018-07-06T08:52:30.807Z,34.20
2018-07-06T08:54:59.197Z,32.60
2018-07-06T08:57:28.882Z,29.92
2018-07-06T08:59:57.645Z,29.05
2018-07-06T09:02:26.248Z,29.72
2018-07-06T09:04:55.350Z,29.50
2018-07-06T09:07:24.014Z,30.60
2018-07-06T09:09:52.797Z,33.65
2018-07-06T09:12:21.180Z,32.70
2018-07-06T09:14:49.508Z,34.83
2018-07-06T09:17:18.895Z,34.83
2018-07-06T09:19:47.670Z,33.45
2018-07-06T09:22:16.465Z,37.20
2018-07-06T09:24:45.567Z,34.78
2018-07-06T09:27:14.032Z,35.58
2018-07-06T09:29:42.415Z,35.50
2018-07-06T09:32:10.803Z,35.33
2018-07-06T09:34:39.486Z,35.52
2018-07-06T09:37:07.977Z,35.75
2018-07-06T09:39:36.664Z,33.90
2018-07-06T09:42:04.975Z,34.85
2018-07-06T09:44:33.521Z,34.85
2018-07-06T09:47:01.820Z,34.08
2018-07-06T09:49:30.095Z,37.58
2018-07-06T09:51:58.458Z,31.37
2018-07-06T09:54:26.752Z,31.12
2018-07-06T09:56:55.102Z,32.60
2018-07-06T09:59:23.443Z,32.48
2018-07-06T10:01:51.864Z,31.93
2018-07-06T10:04:20.194Z,32.00
2018-07-06T10:06:48.533Z,32.28
2018-07-06T10:09:16.824Z,33.88
2018-07-06T10:11:45.099Z,33.15
2018-07-06T10:14:13.424Z,34.20
2018-07-06T10:16:41.766Z,33.30
2018-07-06T10:19:09.795Z,32.23
2018-07-06T10:21:38.101Z,30.43
2018-07-06T10:24:06.497Z,30.70
2018-07-06T10:26:34.959Z,29.90
2018-07-06T10:30:19.372Z,31.05
2018-07-06T10:32:47.808Z,31.00
2018-07-06T10:35:16.116Z,29.12
2018-07-06T10:37:44.423Z,29.35
2018-07-06T10:40:12.780Z,29.52
2018-07-06T10:42:41.151Z,28.50
2018-07-06T10:45:09.519Z,28.00
2018-07-06T10:47:37.787Z,26.82
2018-07-06T10:50:06.125Z,27.65
2018-07-06T10:52:34.446Z,28.95
2018-07-06T10:55:02.787Z,27.62
2018-07-06T10:57:31.086Z,29.82
2018-07-06T10:59:59.423Z,28.17
2018-07-06T11:02:27.746Z,28.57
2018-07-06T11:04:56.363Z,25.27
2018-07-06T11:07:24.723Z,24.15
2018-07-06T11:09:53.091Z,23.55
2018-07-06T11:12:21.383Z,24.87
2018-07-06T11:14:49.680Z,25.02
2018-07-06T11:17:17.993Z,22.40
2018-07-06T11:19:46.243Z,21.48
2018-07-06T11:22:14.503Z,24.37
2018-07-06T11:24:42.851Z,24.50
2018-07-06T11:27:11.121Z,21.12
2018-07-06T11:29:39.967Z,23.32
2018-07-06T11:32:08.552Z,23.52
2018-07-06T11:34:36.847Z,23.60
2018-07-06T11:37:05.199Z,22.17
2018-07-06T11:39:34.490Z,21.45
2018-07-06T11:42:02.742Z,20.75
2018-07-06T11:44:31.099Z,18.17
2018-07-06T11:46:59.387Z,19.55
2018-07-06T11:49:27.759Z,23.55
2018-07-06T11:51:56.046Z,19.65
2018-07-06T11:54:24.390Z,19.90
2018-07-06T11:56:52.699Z,17.62
2018-07-06T11:59:20.970Z,18.77
2018-07-06T12:01:49.424Z,20.10
2018-07-06T12:04:17.803Z,21.82
2018-07-06T12:06:46.153Z,20.00
2018-07-06T12:09:15.106Z,18.32
2018-07-06T12:11:43.509Z,19.27
2018-07-06T12:14:11.934Z,19.25
2018-07-06T12:16:40.266Z,21.73
2018-07-06T12:19:08.576Z,20.62
2018-07-06T12:21:36.870Z,17.92
2018-07-06T12:24:04.963Z,21.23
2018-07-06T12:26:33.306Z,19.48
2018-07-06T12:29:01.737Z,21.87
2018-07-06T12:31:30.409Z,19.90
2018-07-06T12:33:58.739Z,18.55
2018-07-06T12:36:27.068Z,17.57
2018-07-06T12:38:55.406Z,16.80
2018-07-06T12:41:23.454Z,14.33
2018-07-06T12:43:51.779Z,12.82
2018-07-06T12:46:20.058Z,15.72
2018-07-06T12:48:48.509Z,13.40
2018-07-06T12:51:17.103Z,16.85
2018-07-06T12:53:45.476Z,15.98
2018-07-06T12:56:13.754Z,15.35
2018-07-06T12:58:42.076Z,12.88
2018-07-06T13:01:10.048Z,12.73
2018-07-06T13:03:38.389Z,11.28
2018-07-06T13:06:06.732Z,15.03
2018-07-06T13:08:36.167Z,13.45
2018-07-06T13:11:04.440Z,17.07
2018-07-06T13:13:32.434Z,13.25
2018-07-06T13:16:00.732Z,12.40
2018-07-06T13:18:29.073Z,11.30
2018-07-06T13:20:57.141Z,12.20
2018-07-06T13:23:26.373Z,12.43
2018-07-06T13:25:54.814Z,12.15
2018-07-06T13:28:23.045Z,10.75
2018-07-06T13:30:51.337Z,14.25
2018-07-06T13:33:26.556Z,10.00
2018-07-06T13:35:54.832Z,10.55
2018-07-06T13:38:23.086Z,10.70
2018-07-06T13:40:51.409Z,13.40
2018-07-06T13:43:19.650Z,9.33
2018-07-06T13:45:47.940Z,13.62
2018-07-06T13:48:16.269Z,7.58
2018-07-06T13:50:44.334Z,7.80
2018-07-06T13:53:12.863Z,8.38
2018-07-06T13:55:41.185Z,8.53
2018-07-06T13:58:09.520Z,8.08
2018-07-06T14:00:37.892Z,9.60
2018-07-06T14:03:06.250Z,6.08
2018-07-06T14:05:35.800Z,10.48
2018-07-06T14:08:04.093Z,7.83
2018-07-06T14:10:32.408Z,10.95
2018-07-06T14:13:00.797Z,8.60
2018-07-06T14:15:29.033Z,12.40
2018-07-06T14:17:57.065Z,9.08
2018-07-06T14:20:25.436Z,7.08
2018-07-06T14:22:53.954Z,7.30
2018-07-06T14:25:22.208Z,9.83
2018-07-06T14:27:50.525Z,10.65
2018-07-06T14:30:18.811Z,9.38
2018-07-06T14:32:47.091Z,9.90
2018-07-06T14:35:15.388Z,6.58
2018-07-06T14:37:43.701Z,7.03
2018-07-06T14:40:11.995Z,10.40
2018-07-06T14:42:40.218Z,7.22
2018-07-06T14:45:08.504Z,12.28
2018-07-06T14:47:36.876Z,11.95
2018-07-06T14:50:05.173Z,8.28
2018-07-06T14:52:33.454Z,10.88
2018-07-06T14:55:01.705Z,8.78
2018-07-06T14:57:29.958Z,10.32
2018-07-06T14:59:58.285Z,9.43
2018-07-06T15:02:26.515Z,8.73
2018-07-06T15:04:54.873Z,8.33
2018-07-06T15:07:23.116Z,6.12
2018-07-06T15:09:51.356Z,8.20
2018-07-06T15:12:19.645Z,6.03
2018-07-06T15:14:47.940Z,6.67
2018-07-06T15:17:16.202Z,6.58
2018-07-06T15:19:44.528Z,6.55
2018-07-06T15:22:12.534Z,5.62
2018-07-06T15:24:41.392Z,8.73
2018-07-06T15:27:09.408Z,8.68
2018-07-06T15:29:37.652Z,7.55
2018-07-06T15:32:06.126Z,10.28
2018-07-06T15:34:34.420Z,7.75
2018-07-06T15:37:02.775Z,8.43
2018-07-06T15:39:31.088Z,8.28
2018-07-06T15:41:59.323Z,8.98
2018-07-06T15:44:27.332Z,10.93
2018-07-06T15:46:55.658Z,5.53
2018-07-06T15:49:23.654Z,6.75
2018-07-06T15:51:51.964Z,8.68
2018-07-06T15:54:20.215Z,6.85
2018-07-06T15:56:48.464Z,7.33
2018-07-06T15:59:16.790Z,7.92
2018-07-06T16:01:45.075Z,7.47
2018-07-06T16:04:13.392Z,6.97
2018-07-06T16:06:41.635Z,6.12
2018-07-06T16:09:09.885Z,5.92
2018-07-06T16:11:38.184Z,8.15
2018-07-06T16:14:06.537Z,7.37
2018-07-06T16:16:34.880Z,5.90
2018-07-06T16:19:02.882Z,8.55
2018-07-06T16:21:31.217Z,10.35
2018-07-06T16:23:59.954Z,8.80
2018-07-06T16:26:28.434Z,6.12
2018-07-06T16:28:56.697Z,6.58
2018-07-06T16:31:25.037Z,5.92
2018-07-06T16:33:53.074Z,5.75
2018-07-06T16:36:21.419Z,8.83
2018-07-06T16:38:49.640Z,5.05
2018-07-06T16:41:17.930Z,7.10
2018-07-06T16:43:46.198Z,7.70
2018-07-06T16:46:14.469Z,7.80
2018-07-06T16:48:42.730Z,7.95
2018-07-06T16:51:11.069Z,8.80
2018-07-06T16:53:39.393Z,5.40
2018-07-06T16:56:07.642Z,7.33
2018-07-06T16:58:35.964Z,9.00
2018-07-06T17:01:04.287Z,9.65
2018-07-06T17:03:32.552Z,7.60
2018-07-06T17:06:00.899Z,6.28
2018-07-06T17:08:29.192Z,5.12
2018-07-06T17:10:57.146Z,5.85
2018-07-06T17:13:25.416Z,7.58
2018-07-06T17:15:53.737Z,9.10
2018-07-06T17:18:22.111Z,7.03
2018-07-06T17:20:50.399Z,10.63
2018-07-06T17:23:18.701Z,9.75
2018-07-06T17:25:46.998Z,6.40
2018-07-06T17:28:15.323Z,8.88
2018-07-06T17:30:43.608Z,7.90
2018-07-06T17:33:11.935Z,4.53
2018-07-06T17:35:40.227Z,6.60
2018-07-06T17:38:08.226Z,4.62
2018-07-06T17:40:36.462Z,5.55
2018-07-06T17:43:04.791Z,6.95
2018-07-06T17:45:33.082Z,6.62
2018-07-06T17:48:01.415Z,8.38
2018-07-06T17:50:29.783Z,5.33
2018-07-06T17:52:58.037Z,5.50
2018-07-06T17:55:26.293Z,7.20
2018-07-06T17:57:54.588Z,10.72
2018-07-06T18:00:22.862Z,4.97
2018-07-06T18:02:51.152Z,4.97
2018-07-06T18:05:19.430Z,9.48
2018-07-06T18:07:47.775Z,7.67
2018-07-06T18:10:16.093Z,5.42
2018-07-06T18:12:44.102Z,5.37
2018-07-06T18:15:13.585Z,6.65
2018-07-06T18:17:42.550Z,6.80
2018-07-06T18:20:10.830Z,4.08
2018-07-06T18:22:39.104Z,5.05
2018-07-06T18:25:07.097Z,6.45
2018-07-06T18:27:35.380Z,4.10
2018-07-06T18:30:03.716Z,5.60
2018-07-06T18:32:32.230Z,6.92
2018-07-06T18:35:00.560Z,7.40
2018-07-06T18:37:28.875Z,3.70
2018-07-06T18:39:57.110Z,5.33
2018-07-06T18:42:25.371Z,9.13
2018-07-06T18:44:53.666Z,4.72
2018-07-06T18:47:21.889Z,6.85
2018-07-06T18:49:50.178Z,5.50
2018-07-06T18:52:18.523Z,7.08
2018-07-06T18:54:46.904Z,6.20
2018-07-06T18:57:15.086Z,5.83
2018-07-06T18:59:43.376Z,4.30
2018-07-06T19:02:11.671Z,3.45
2018-07-06T19:04:39.965Z,7.65
2018-07-06T19:07:08.245Z,4.47
2018-07-06T19:09:36.792Z,5.95
2018-07-06T19:12:05.088Z,6.28
2018-07-06T19:14:33.443Z,6.78
2018-07-06T19:17:02.215Z,6.42
2018-07-06T19:19:30.544Z,7.75
2018-07-06T19:21:58.883Z,7.25
2018-07-06T19:24:27.216Z,5.47
2018-07-06T19:26:55.476Z,4.00
2018-07-06T19:29:23.743Z,5.70
2018-07-06T19:31:53.039Z,5.83
2018-07-06T19:34:21.311Z,8.18
2018-07-06T19:36:49.618Z,6.03
2018-07-06T19:39:17.941Z,4.58
2018-07-06T19:41:46.206Z,4.28
2018-07-06T19:44:14.234Z,5.67
2018-07-06T19:46:42.597Z,4.22
2018-07-06T19:49:10.921Z,7.12
2018-07-06T19:51:39.291Z,4.35
2018-07-06T19:54:07.387Z,5.22
2018-07-06T19:56:35.471Z,4.72
2018-07-06T19:59:03.788Z,5.08
2018-07-06T20:01:32.164Z,7.55
2018-07-06T20:04:00.465Z,6.30
2018-07-06T20:06:28.763Z,7.45
2018-07-06T20:08:57.029Z,5.05
2018-07-06T20:11:25.042Z,6.55
2018-07-06T20:13:53.324Z,5.17
2018-07-06T20:16:21.607Z,5.65
2018-07-06T20:18:49.927Z,5.65
2018-07-06T20:21:18.206Z,4.37
2018-07-06T20:23:46.474Z,5.60
2018-07-06T20:26:14.789Z,5.72
2018-07-06T20:28:43.805Z,5.40
2018-07-06T20:31:12.137Z,7.47
2018-07-06T20:33:40.432Z,4.33
2018-07-06T20:36:08.782Z,10.03
2018-07-06T20:38:37.039Z,9.98
2018-07-06T20:41:05.379Z,10.43
2018-07-06T20:43:33.675Z,5.00
2018-07-06T20:46:01.956Z,6.67
2018-07-06T20:48:30.400Z,6.05
2018-07-06T20:50:58.884Z,3.72
2018-07-06T20:53:27.532Z,5.78
2018-07-06T20:55:55.860Z,4.53
2018-07-06T20:58:24.138Z,7.72
2018-07-06T21:00:52.433Z,5.62
2018-07-06T21:03:20.710Z,7.10
2018-07-06T21:05:49.047Z,5.37
2018-07-06T21:08:17.308Z,5.95
2018-07-06T21:10:46.204Z,9.18
2018-07-06T21:13:14.584Z,5.65
2018-07-06T21:15:45.060Z,7.45
2018-07-06T21:18:14.697Z,6.37
2018-07-06T21:20:43.255Z,8.80
2018-07-06T21:23:11.848Z,6.03
2018-07-06T21:25:40.768Z,6.80
2018-07-06T21:28:09.221Z,6.12
2018-07-06T21:30:37.857Z,6.83
2018-07-06T21:33:06.401Z,4.58
2018-07-06T21:35:34.830Z,6.55
2018-07-06T21:38:03.289Z,4.70
2018-07-06T21:40:31.785Z,5.47
2018-07-06T21:43:00.197Z,7.53
2018-07-06T21:45:28.791Z,9.00
2018-07-06T21:47:57.186Z,6.95
2018-07-06T21:50:25.618Z,6.55
2018-07-06T21:52:54.199Z,5.97
2018-07-06T21:55:22.815Z,5.40
2018-07-06T21:57:51.164Z,5.85
2018-07-06T22:00:29.428Z,7.28
2018-07-06T22:02:57.769Z,6.78
2018-07-06T22:05:26.208Z,6.25
2018-07-06T22:07:54.663Z,6.42
2018-07-06T22:10:22.947Z,9.83
2018-07-06T22:12:51.192Z,7.78
2018-07-06T22:15:19.521Z,4.53
2018-07-06T22:17:47.823Z,7.25
2018-07-06T22:20:16.124Z,9.25
2018-07-06T22:22:44.455Z,6.15
2018-07-06T22:25:12.753Z,5.62
2018-07-06T22:27:41.019Z,9.00
2018-07-06T22:30:09.351Z,4.80
2018-07-06T22:32:37.622Z,4.83
2018-07-06T22:35:05.893Z,6.55
2018-07-06T22:37:33.880Z,6.78
2018-07-06T22:40:02.137Z,5.12
2018-07-06T22:42:30.472Z,8.03
2018-07-06T22:44:58.758Z,5.80
2018-07-06T22:47:27.031Z,6.30
2018-07-06T22:49:55.310Z,7.25
2018-07-06T22:52:24.414Z,7.30
2018-07-06T22:54:52.710Z,6.37
2018-07-06T22:57:20.987Z,6.40
2018-07-06T22:59:49.222Z,5.50
2018-07-06T23:02:17.562Z,8.33
2018-07-06T23:04:45.844Z,5.80
2018-07-06T23:07:14.118Z,11.73
2018-07-06T23:09:42.616Z,5.40
2018-07-06T23:12:10.884Z,7.53
2018-07-06T23:14:39.134Z,6.22
2018-07-06T23:17:07.129Z,7.30
2018-07-06T23:19:35.397Z,7.33
2018-07-06T23:22:03.687Z,8.60
2018-07-06T23:24:31.962Z,9.45
2018-07-06T23:27:00.294Z,7.50
2018-07-06T23:29:28.536Z,9.20
2018-07-06T23:31:56.806Z,6.13
2018-07-06T23:34:25.064Z,6.60
2018-07-06T23:36:53.357Z,5.90
2018-07-06T23:39:21.591Z,6.33
2018-07-06T23:41:49.846Z,6.10
2018-07-06T23:44:18.104Z,9.93
2018-07-06T23:46:46.376Z,5.97
2018-07-06T23:49:14.722Z,7.83
2018-07-06T23:51:42.969Z,8.40
2018-07-06T23:54:11.234Z,6.70
2018-07-06T23:56:39.495Z,8.20
2018-07-06T23:59:07.758Z,9.10
